createdAt,value
2019-01-20T00:03:14.792Z,21.2
2019-01-20T00:08:20.349Z,21.2
2019-01-20T00:13:25.986Z,21.1
2019-01-20T00:18:31.497Z,21.1
2019-01-20T00:23:37.435Z,21.1
2019-01-20T00:28:42.483Z,21.1
2019-01-20T00:33:47.600Z,21.1
2019-01-20T00:38:51.872Z,21
2019-01-20T00:43:57.501Z,21
2019-01-20T00:49:02.616Z,21
2019-01-20T00:54:07.637Z,21
2019-01-20T00:59:12.855Z,21
2019-01-20T01:04:17.880Z,21
2019-01-20T01:09:23.084Z,21
2019-01-20T01:14:29.084Z,20.9
2019-01-20T01:19:34.443Z,20.9
2019-01-20T01:24:40.051Z,20.9
2019-01-20T01:29:45.079Z,21
2019-01-20T01:34:50.536Z,20.9
2019-01-20T01:39:56.416Z,20.9
2019-01-20T01:45:01.472Z,20.9
2019-01-20T01:50:06.924Z,20.9
2019-01-20T01:55:12.299Z,20.9
2019-01-20T02:00:17.648Z,20.9
2019-01-20T02:05:23.318Z,20.9
2019-01-20T02:10:28.821Z,20.9
2019-01-20T02:15:34.355Z,20.9
2019-01-20T02:25:43.262Z,20.8
2019-01-20T02:30:48.472Z,20.8
2019-01-20T02:35:54.269Z,20.8
2019-01-20T02:40:59.856Z,20.8
2019-01-20T02:46:04.817Z,20.8
2019-01-20T02:51:10.877Z,20.8
2019-01-20T03:01:19.672Z,20.8
2019-01-20T03:06:25.892Z,20.7
2019-01-20T03:11:31.498Z,20.8
2019-01-20T03:16:37.067Z,20.7
2019-01-20T03:21:42.295Z,20.7
2019-01-20T03:26:47.672Z,20.7
2019-01-20T03:31:53.265Z,20.7
2019-01-20T03:36:58.455Z,20.7
2019-01-20T03:42:11.516Z,20.7
2019-01-20T03:47:07.500Z,20.7
2019-01-20T03:52:12.567Z,20.7
2019-01-20T03:57:18.236Z,20.7
2019-01-20T04:02:23.408Z,20.7
2019-01-20T04:07:28.471Z,20.7
2019-01-20T04:12:33.583Z,20.7
2019-01-20T04:17:38.536Z,20.7
2019-01-20T04:22:43.940Z,20.6
2019-01-20T04:27:49.461Z,20.6
2019-01-20T04:32:54.524Z,20.6
2019-01-20T04:38:00.102Z,20.6
2019-01-20T04:43:05.332Z,20.6
2019-01-20T04:48:10.395Z,20.6
2019-01-20T04:53:15.993Z,20.6
2019-01-20T04:58:21.595Z,20.6
2019-01-20T05:03:28.672Z,20.6
2019-01-20T05:08:34.248Z,20.6
2019-01-20T05:13:39.312Z,20.6
2019-01-20T05:18:44.628Z,20.6
2019-01-20T05:23:50.448Z,21
2019-01-20T05:28:56.101Z,21.6
2019-01-20T05:34:00.356Z,22.1
2019-01-20T05:39:05.461Z,22.3
2019-01-20T05:44:10.831Z,22.5
2019-01-20T05:49:15.974Z,22.6
2019-01-20T05:54:20.928Z,22.7
2019-01-20T05:59:25.976Z,22.7
2019-01-20T06:04:31.179Z,22.7
2019-01-20T06:09:36.403Z,22.7
2019-01-20T06:14:42.169Z,22.8
2019-01-20T06:19:47.223Z,22.8
2019-01-20T06:24:52.476Z,22.8
2019-01-20T06:29:57.789Z,22.8
2019-01-20T06:35:02.856Z,22.8
2019-01-20T06:45:13.031Z,23.2
2019-01-20T06:50:18.680Z,23.2
2019-01-20T06:55:23.722Z,18.8
2019-01-20T07:00:29.342Z,20.2
2019-01-20T07:05:35.220Z,22
2019-01-20T07:10:41.175Z,21.5
2019-01-20T07:15:47.044Z,22.1
2019-01-20T07:20:52.207Z,20.1
2019-01-20T07:25:57.580Z,21.9
2019-01-20T07:31:02.799Z,22.7
2019-01-20T07:36:08.115Z,23.1
2019-01-20T07:41:14.396Z,23.5
2019-01-20T07:46:21.160Z,23.8
2019-01-20T07:51:26.777Z,23.6
2019-01-20T07:56:32.072Z,23.8
2019-01-20T08:06:41.899Z,23.7
2019-01-20T08:11:47.615Z,23.7
2019-01-20T08:16:52.894Z,23.8
2019-01-20T08:21:58.663Z,23.7
2019-01-20T08:27:04.073Z,23.7
2019-01-20T08:32:09.824Z,23.6
2019-01-20T08:37:14.980Z,23.5
2019-01-20T08:42:20.649Z,23.6
2019-01-20T08:47:26.836Z,23.5
2019-01-20T08:52:37.002Z,23.3
2019-01-20T08:57:42.752Z,23.2
2019-01-20T09:02:47.909Z,23.1
2019-01-20T09:07:53.499Z,23.1
2019-01-20T09:13:02.928Z,23
2019-01-20T09:18:08.283Z,22.9
2019-01-20T09:23:13.680Z,22.8
2019-01-20T09:28:18.796Z,22.8
2019-01-20T09:33:26.528Z,22.7
2019-01-20T09:38:33.249Z,22.6
2019-01-20T09:43:39.105Z,22.6
2019-01-20T09:48:41.694Z,22.6
2019-01-20T09:53:46.993Z,22.5
2019-01-20T09:58:51.966Z,22.5
2019-01-20T10:09:01.309Z,22.4
2019-01-20T10:14:07.021Z,22.3
2019-01-20T10:19:12.249Z,22.3
2019-01-20T10:24:17.377Z,22.4
2019-01-20T10:29:23.076Z,22.5
2019-01-20T10:34:28.676Z,22.5
2019-01-20T10:39:33.687Z,22.4
2019-01-20T10:44:39.751Z,22.1
2019-01-20T10:54:50.236Z,21.9
2019-01-20T10:59:55.545Z,21.8
2019-01-20T11:05:01.055Z,21.8
2019-01-20T11:10:06.863Z,21.8
2019-01-20T11:15:12.001Z,21.7
2019-01-20T11:20:17.159Z,16.9
2019-01-20T11:25:22.338Z,25.4
2019-01-20T11:30:27.729Z,25.2
2019-01-20T11:35:33.068Z,26.7
2019-01-20T11:40:38.329Z,26.3
2019-01-20T11:45:43.465Z,26.8
2019-01-20T11:50:48.839Z,25.7
2019-01-20T11:55:55.097Z,25.4
2019-01-20T12:01:00.245Z,25.1
2019-01-20T12:06:05.548Z,24.6
2019-01-20T12:11:10.953Z,23.8
2019-01-20T12:16:16.913Z,23.1
2019-01-20T12:21:17.462Z,23.1
2019-01-20T12:26:23.126Z,22.9
2019-01-20T12:31:28.831Z,22.7
2019-01-20T12:36:33.859Z,22.9
2019-01-20T12:46:48.580Z,22.7
2019-01-20T12:51:54.436Z,22.5
2019-01-20T12:56:59.381Z,22.8
2019-01-20T13:02:04.408Z,22.7
2019-01-20T13:07:09.413Z,22.7
2019-01-20T13:12:15.083Z,22.5
2019-01-20T13:17:20.914Z,22.4
2019-01-20T13:22:24.754Z,22.2
2019-01-20T13:27:30.258Z,22
2019-01-20T13:32:36.536Z,22.1
2019-01-20T13:37:41.767Z,21.9
2019-01-20T13:42:47.637Z,21.8
2019-01-20T13:47:53.708Z,21.8
2019-01-20T13:52:59.485Z,21.8
2019-01-20T13:58:04.426Z,22.1
2019-01-20T14:03:10.178Z,21.9
2019-01-20T14:08:15.908Z,21.9
2019-01-20T14:13:21.272Z,21.9
2019-01-20T14:18:27.233Z,22
2019-01-20T14:23:32.443Z,22
2019-01-20T14:28:37.826Z,21.9
2019-01-20T14:33:43.100Z,21.8
2019-01-20T14:38:48.084Z,21.7
2019-01-20T14:43:53.426Z,21.7
2019-01-20T14:48:58.899Z,21.6
2019-01-20T14:54:04.069Z,21.5
2019-01-20T14:59:08.920Z,21.4
2019-01-20T15:04:14.453Z,21.4
2019-01-20T15:09:22.315Z,21.4
2019-01-20T15:14:27.916Z,21.2
2019-01-20T15:19:32.972Z,21.2
2019-01-20T15:24:38.505Z,21.3
2019-01-20T15:29:43.387Z,21.3
2019-01-20T15:34:48.888Z,21.2
2019-01-20T15:39:54.575Z,21.2
2019-01-20T15:45:01.013Z,21.3
2019-01-20T15:50:06.511Z,21.3
2019-01-20T15:55:16.475Z,21.3
2019-01-20T16:00:22.157Z,21.3
2019-01-20T16:05:29.959Z,21.3
2019-01-20T16:10:35.504Z,21.3
2019-01-20T16:15:41.164Z,21.3
2019-01-20T16:20:47.992Z,21.3
2019-01-20T16:25:53.793Z,21.3
2019-01-20T16:30:58.779Z,21.3
2019-01-20T16:36:04.464Z,21.3
2019-01-20T16:41:10.256Z,21.3
2019-01-20T16:46:15.572Z,21.3
2019-01-20T16:51:21.291Z,21.3
2019-01-20T16:56:26.961Z,21.4
2019-01-20T17:01:32.636Z,21.4
2019-01-20T17:06:36.851Z,21.4
2019-01-20T17:27:10.223Z,21.2
2019-01-20T17:31:57.441Z,21.2
2019-01-20T17:37:02.812Z,21.2
2019-01-20T17:42:08.205Z,21.2
2019-01-20T17:52:18.302Z,21.2
2019-01-20T17:57:23.811Z,21.2
2019-01-20T18:02:29.784Z,21.2
2019-01-20T18:07:35.446Z,21.1
2019-01-20T18:12:40.817Z,21.2
2019-01-20T18:17:45.994Z,21.2
2019-01-20T18:22:51.306Z,21.3
2019-01-20T18:27:56.411Z,21.3
2019-01-20T18:29:40.704Z,21.3
2019-01-20T18:34:46.223Z,13.5
2019-01-20T18:39:22.461Z,13.4
2019-01-20T18:44:27.617Z,15.2
2019-01-20T18:49:33.414Z,21.3
2019-01-20T18:54:39.326Z,22.4
2019-01-20T18:59:45.239Z,22.5
2019-01-20T19:04:51.693Z,23.3
2019-01-20T19:09:56.898Z,23.7
2019-01-20T19:15:02.112Z,23.9
2019-01-20T19:20:07.556Z,24
2019-01-20T19:25:07.675Z,23.9
2019-01-20T19:30:12.540Z,23.9
2019-01-20T19:35:17.654Z,24
2019-01-20T19:40:22.707Z,23.6
2019-01-20T19:45:27.765Z,24.7
2019-01-20T19:50:32.529Z,23.6
2019-01-20T19:55:38.105Z,23.9
2019-01-20T20:00:43.149Z,24.6
2019-01-20T20:05:48.905Z,24.3
2019-01-20T20:10:53.837Z,24.6
2019-01-20T20:15:59.210Z,24.7
2019-01-20T20:21:04.570Z,26.5
2019-01-20T20:26:09.766Z,26.4
2019-01-20T20:31:15.322Z,27.4
2019-01-20T20:36:20.323Z,27.3
2019-01-20T20:41:25.712Z,27.6
2019-01-20T20:46:32.472Z,27.1
2019-01-20T20:51:37.445Z,27.1
2019-01-20T20:56:43.104Z,26
2019-01-20T21:01:48.790Z,27
2019-01-20T21:06:54.482Z,26.2
2019-01-20T21:12:00.116Z,25.2
2019-01-20T21:22:09.735Z,23.4
2019-01-20T21:32:20.570Z,23.1
2019-01-20T21:37:26.250Z,22.6
2019-01-20T21:42:32.200Z,22.3
2019-01-20T21:47:38.619Z,21.9
2019-01-20T21:52:42.571Z,21.9
2019-01-20T21:57:47.618Z,21.7
2019-01-20T22:02:52.591Z,21.5
2019-01-20T22:07:57.737Z,21.5
2019-01-20T22:13:03.463Z,21.5
2019-01-20T22:18:09.738Z,21.5
2019-01-20T22:23:15.741Z,21.4
2019-01-20T22:28:21.553Z,21.3
2019-01-20T22:33:27.335Z,21.2
2019-01-20T22:43:37.224Z,21.2
2019-01-20T22:48:43.333Z,21.1
2019-01-20T22:53:49.765Z,21.1
2019-01-20T22:58:55.689Z,21.1
2019-01-20T23:04:02.195Z,21
2019-01-20T23:14:14.944Z,21
2019-01-20T23:19:20.937Z,21
2019-01-20T23:24:29.618Z,21
2019-01-20T23:29:38.671Z,21
2019-01-20T23:34:45.744Z,21
2019-01-20T23:39:51.514Z,21
2019-01-20T23:44:57.677Z,20.9
2019-01-20T23:50:03.430Z,20.9
2019-01-20T23:55:08.855Z,20.9
